WXM80 ListenWXM80 Stop

You find our weather info also at:

UK Metoffice

WeatherCloud

Weather Underground

Northeastern Weather Network

AWEKAS

Citizen Weather Observer Program (CWOP)

HAMweather, WeatherForYou, PWS Weather


Weather Underground History page Text

Daily Summary for July 30, 2017 Units:  Both    English   Metric
« Previous Day
Next Day »
Daily Weekly Monthly Yearly Custom
  High: Low: Average:
Temperature: 86.0 °F /  30 °C 63.2 °F /  17.3 °C 73.4 °F /  23 °C
Dew Point: 62.3 °F /  16.8 °C 53.8 °F /  12.1 °C 58.1 °F /  14.5 °C
Humidity: 81 % 35 % 61 %
Wind Speed: 8.0 mph /  12.9 km/h - 2.5 mph /  4 km/h
Wind Gust: 13.8 mph /  22.2 km/h - -
Wind:- - SE
Pressure: 30.01 in /  1016.1 hPa 29.84 in /  1010.4 hPa -
Precipitation: 0.00 in /  0 mm    
Historical Graphs
 
 
Tabular Data for July 30, 2017
Time Temperature Dew Point Pressure Wind Wind Speed Wind Gust Humidity Rainfall Rate (Hourly)
00:02 67.4 °F /  19.7 °C 58.8 °F /  14.9 °C 29.84 in /  1010.4 hPa NNE 5.0 mph /  8 km/h 8.1 mph /  13 km/h 74 % 0.00 in /  0 mm
00:07 67.2 °F /  19.6 °C 59.0 °F /  15 °C 29.85 in /  1010.7 hPa ENE 4.9 mph /  7.9 km/h 8.0 mph /  12.9 km/h 75 % 0.00 in /  0 mm
00:12 67.1 °F /  19.5 °C 58.5 °F /  14.7 °C 29.84 in /  1010.4 hPa NNE 5.2 mph /  8.4 km/h 7.0 mph /  11.3 km/h 74 % 0.00 in /  0 mm
00:17 67.0 °F /  19.4 °C 58.4 °F /  14.7 °C 29.84 in /  1010.4 hPa North 5.5 mph /  8.9 km/h 6.9 mph /  11.1 km/h 74 % 0.00 in /  0 mm
00:22 66.9 °F /  19.4 °C 58.3 °F /  14.6 °C 29.84 in /  1010.4 hPa NNE 3.8 mph /  6.1 km/h 5.8 mph /  9.3 km/h 74 % 0.00 in /  0 mm
00:25 66.9 °F /  19.4 °C 58.3 °F /  14.6 °C 29.84 in /  1010.4 hPa NNE 3.0 mph /  4.8 km/h 8.1 mph /  13 km/h 74 % 0.00 in /  0 mm
00:30 66.8 °F /  19.3 °C 58.6 °F /  14.8 °C 29.84 in /  1010.4 hPa North 5.6 mph /  9 km/h 8.1 mph /  13 km/h 75 % 0.00 in /  0 mm
00:35 66.7 °F /  19.3 °C 58.5 °F /  14.7 °C 29.84 in /  1010.4 hPa NNE 2.4 mph /  3.9 km/h 4.6 mph /  7.4 km/h 75 % 0.00 in /  0 mm
00:40 66.7 °F /  19.3 °C 58.1 °F /  14.5 °C 29.85 in /  1010.7 hPa NE 3.8 mph /  6.1 km/h 6.0 mph /  9.7 km/h 74 % 0.00 in /  0 mm
00:45 66.5 °F /  19.2 °C 58.0 °F /  14.4 °C 29.84 in /  1010.4 hPa NNE 6.5 mph /  10.5 km/h 10.0 mph /  16.1 km/h 74 % 0.00 in /  0 mm
00:50 66.5 °F /  19.2 °C 58.3 °F /  14.6 °C 29.84 in /  1010.4 hPa North 6.1 mph /  9.8 km/h 9.0 mph /  14.5 km/h 75 % 0.00 in /  0 mm
00:55 66.4 °F /  19.1 °C 58.2 °F /  14.6 °C 29.84 in /  1010.4 hPa NNE 6.0 mph /  9.7 km/h 11.5 mph /  18.5 km/h 75 % 0.00 in /  0 mm
01:00 66.3 °F /  19.1 °C 58.1 °F /  14.5 °C 29.84 in /  1010.4 hPa North 5.7 mph /  9.2 km/h 8.1 mph /  13 km/h 75 % 0.00 in /  0 mm
01:05 66.3 °F /  19.1 °C 58.1 °F /  14.5 °C 29.84 in /  1010.4 hPa North 5.9 mph /  9.5 km/h 9.2 mph /  14.8 km/h 75 % 0.00 in /  0 mm
01:10 66.3 °F /  19.1 °C 58.1 °F /  14.5 °C 29.84 in /  1010.4 hPa NNE 3.1 mph /  5 km/h 6.9 mph /  11.1 km/h 75 % 0.00 in /  0 mm
01:15 66.2 °F /  19 °C 58.0 °F /  14.4 °C 29.84 in /  1010.4 hPa NNE 4.1 mph /  6.6 km/h 6.9 mph /  11.1 km/h 75 % 0.00 in /  0 mm
01:20 66.2 °F /  19 °C 58.0 °F /  14.4 °C 29.84 in /  1010.4 hPa NNE 6.2 mph /  10 km/h 10.4 mph /  16.7 km/h 75 % 0.00 in /  0 mm
01:25 66.2 °F /  19 °C 58.0 °F /  14.4 °C 29.84 in /  1010.4 hPa North 3.8 mph /  6.1 km/h 7.0 mph /  11.3 km/h 75 % 0.00 in /  0 mm
01:30 66.1 °F /  18.9 °C 57.9 °F /  14.4 °C 29.84 in /  1010.4 hPa NNE 4.6 mph /  7.4 km/h 9.2 mph /  14.8 km/h 75 % 0.00 in /  0 mm
01:35 66.1 °F /  18.9 °C 57.9 °F /  14.4 °C 29.84 in /  1010.4 hPa NNE 3.8 mph /  6.1 km/h 8.1 mph /  13 km/h 75 % 0.00 in /  0 mm
01:40 66.0 °F /  18.9 °C 57.8 °F /  14.3 °C 29.84 in /  1010.4 hPa North 4.8 mph /  7.7 km/h 5.0 mph /  8 km/h 75 % 0.00 in /  0 mm
01:45 66.0 °F /  18.9 °C 57.8 °F /  14.3 °C 29.84 in /  1010.4 hPa North 6.5 mph /  10.5 km/h 9.2 mph /  14.8 km/h 75 % 0.00 in /  0 mm
01:47 66.0 °F /  18.9 °C 57.8 °F /  14.3 °C 29.84 in /  1010.4 hPa North 5.2 mph /  8.4 km/h 11.5 mph /  18.5 km/h 75 % 0.00 in /  0 mm
01:52 66.0 °F /  18.9 °C 57.8 °F /  14.3 °C 29.84 in /  1010.4 hPa NE 6.1 mph /  9.8 km/h 11.5 mph /  18.5 km/h 75 % 0.00 in /  0 mm
01:57 65.9 °F /  18.8 °C 57.4 °F /  14.1 °C 29.84 in /  1010.4 hPa NE 7.9 mph /  12.7 km/h 10.4 mph /  16.7 km/h 74 % 0.00 in /  0 mm
02:02 65.9 °F /  18.8 °C 57.7 °F /  14.3 °C 29.84 in /  1010.4 hPa North 6.2 mph /  10 km/h 10.4 mph /  16.7 km/h 75 % 0.00 in /  0 mm
02:07 65.9 °F /  18.8 °C 58.1 °F /  14.5 °C 29.84 in /  1010.4 hPa North 4.0 mph /  6.4 km/h 5.8 mph /  9.3 km/h 76 % 0.00 in /  0 mm
02:12 65.9 °F /  18.8 °C 58.1 °F /  14.5 °C 29.84 in /  1010.4 hPa NNE 4.2 mph /  6.8 km/h 5.8 mph /  9.3 km/h 76 % 0.00 in /  0 mm
02:17 65.9 °F /  18.8 °C 58.5 °F /  14.7 °C 29.84 in /  1010.4 hPa North 4.4 mph /  7.1 km/h 6.9 mph /  11.1 km/h 77 % 0.00 in /  0 mm
02:22 65.8 °F /  18.8 °C 58.0 °F /  14.4 °C 29.84 in /  1010.4 hPa North 5.0 mph /  8 km/h 10.4 mph /  16.7 km/h 76 % 0.00 in /  0 mm
02:27 65.8 °F /  18.8 °C 57.7 °F /  14.3 °C 29.84 in /  1010.4 hPa NNW 5.1 mph /  8.2 km/h 10.4 mph /  16.7 km/h 75 % 0.00 in /  0 mm
02:32 65.9 °F /  18.8 °C 57.4 °F /  14.1 °C 29.84 in /  1010.4 hPa North 5.2 mph /  8.4 km/h 9.2 mph /  14.8 km/h 74 % 0.00 in /  0 mm
02:37 65.9 °F /  18.8 °C 57.7 °F /  14.3 °C 29.84 in /  1010.4 hPa North 6.1 mph /  9.8 km/h 9.2 mph /  14.8 km/h 75 % 0.00 in /  0 mm
02:42 65.9 °F /  18.8 °C 57.7 °F /  14.3 °C 29.84 in /  1010.4 hPa North 6.8 mph /  10.9 km/h 10.4 mph /  16.7 km/h 75 % 0.00 in /  0 mm
02:47 65.9 °F /  18.8 °C 57.7 °F /  14.3 °C 29.84 in /  1010.4 hPa NNE 3.8 mph /  6.1 km/h 6.9 mph /  11.1 km/h 75 % 0.00 in /  0 mm
02:52 65.9 °F /  18.8 °C 57.4 °F /  14.1 °C 29.84 in /  1010.4 hPa NNE 8.0 mph /  12.9 km/h 13.8 mph /  22.2 km/h 74 % 0.00 in /  0 mm
02:57 65.9 °F /  18.8 °C 58.1 °F /  14.5 °C 29.84 in /  1010.4 hPa North 5.7 mph /  9.2 km/h 8.1 mph /  13 km/h 76 % 0.00 in /  0 mm
03:02 65.8 °F /  18.8 °C 58.0 °F /  14.4 °C 29.84 in /  1010.4 hPa NNE 3.8 mph /  6.1 km/h 6.0 mph /  9.7 km/h 76 % 0.00 in /  0 mm
03:07 65.7 °F /  18.7 °C 57.9 °F /  14.4 °C 29.85 in /  1010.7 hPa North 5.9 mph /  9.5 km/h 9.2 mph /  14.8 km/h 76 % 0.00 in /  0 mm
03:12 65.6 °F /  18.7 °C 57.8 °F /  14.3 °C 29.85 in /  1010.7 hPa NNE 5.7 mph /  9.2 km/h 6.9 mph /  11.1 km/h 76 % 0.00 in /  0 mm
03:17 65.5 °F /  18.6 °C 57.4 °F /  14.1 °C 29.85 in /  1010.7 hPa North 3.4 mph /  5.5 km/h 4.6 mph /  7.4 km/h 75 % 0.00 in /  0 mm
03:22 65.5 °F /  18.6 °C 57.7 °F /  14.3 °C 29.85 in /  1010.7 hPa NNE 4.2 mph /  6.8 km/h 8.1 mph /  13 km/h 76 % 0.00 in /  0 mm
03:27 65.5 °F /  18.6 °C 57.4 °F /  14.1 °C 29.85 in /  1010.7 hPa NNE 4.1 mph /  6.6 km/h 5.8 mph /  9.3 km/h 75 % 0.00 in /  0 mm
03:32 65.4 °F /  18.6 °C 56.9 °F /  13.8 °C 29.85 in /  1010.7 hPa North 6.5 mph /  10.5 km/h 13.8 mph /  22.2 km/h 74 % 0.00 in /  0 mm
03:37 65.3 °F /  18.5 °C 56.4 °F /  13.6 °C 29.85 in /  1010.7 hPa NNE 5.9 mph /  9.5 km/h 9.0 mph /  14.5 km/h 73 % 0.00 in /  0 mm
03:42 65.3 °F /  18.5 °C 56.8 °F /  13.8 °C 29.85 in /  1010.7 hPa NE 5.3 mph /  8.5 km/h 8.0 mph /  12.9 km/h 74 % 0.00 in /  0 mm
03:47 65.3 °F /  18.5 °C 56.8 °F /  13.8 °C 29.85 in /  1010.7 hPa NNE 3.0 mph /  4.8 km/h 6.0 mph /  9.7 km/h 74 % 0.00 in /  0 mm
03:52 65.2 °F /  18.4 °C 56.7 °F /  13.7 °C 29.85 in /  1010.7 hPa NNE 6.1 mph /  9.8 km/h 9.2 mph /  14.8 km/h 74 % 0.00 in /  0 mm
03:57 65.1 °F /  18.4 °C 56.6 °F /  13.7 °C 29.85 in /  1010.7 hPa NNE 2.8 mph /  4.5 km/h 5.8 mph /  9.3 km/h 74 % 0.00 in /  0 mm
04:03 65.1 °F /  18.4 °C 56.6 °F /  13.7 °C 29.86 in /  1011.1 hPa North 5.7 mph /  9.2 km/h 10.4 mph /  16.7 km/h 74 % 0.00 in /  0 mm
04:08 65.0 °F /  18.3 °C 56.5 °F /  13.6 °C 29.86 in /  1011.1 hPa North 6.5 mph /  10.5 km/h 10.4 mph /  16.7 km/h 74 % 0.00 in /  0 mm
04:13 65.0 °F /  18.3 °C 56.9 °F /  13.8 °C 29.86 in /  1011.1 hPa NNE 5.2 mph /  8.4 km/h 8.1 mph /  13 km/h 75 % 0.00 in /  0 mm
04:18 65.0 °F /  18.3 °C 56.9 °F /  13.8 °C 29.86 in /  1011.1 hPa NNW 3.3 mph /  5.3 km/h 5.8 mph /  9.3 km/h 75 % 0.00 in /  0 mm
04:23 64.9 °F /  18.3 °C 56.8 °F /  13.8 °C 29.86 in /  1011.1 hPa NE 6.8 mph /  10.9 km/h 10.4 mph /  16.7 km/h 75 % 0.00 in /  0 mm
04:28 64.9 °F /  18.3 °C 56.8 °F /  13.8 °C 29.86 in /  1011.1 hPa NNE 5.1 mph /  8.2 km/h 6.0 mph /  9.7 km/h 75 % 0.00 in /  0 mm
04:33 64.8 °F /  18.2 °C 57.1 °F /  13.9 °C 29.86 in /  1011.1 hPa NNE 5.2 mph /  8.4 km/h 9.2 mph /  14.8 km/h 76 % 0.00 in /  0 mm
04:38 64.7 °F /  18.2 °C 57.3 °F /  14.1 °C 29.87 in /  1011.4 hPa North 7.0 mph /  11.3 km/h 10.4 mph /  16.7 km/h 77 % 0.00 in /  0 mm
04:43 64.5 °F /  18.1 °C 56.8 °F /  13.8 °C 29.87 in /  1011.4 hPa North 5.9 mph /  9.5 km/h 11.5 mph /  18.5 km/h 76 % 0.00 in /  0 mm
04:48 64.5 °F /  18.1 °C 57.1 °F /  13.9 °C 29.87 in /  1011.4 hPa North 6.8 mph /  10.9 km/h 10.4 mph /  16.7 km/h 77 % 0.00 in /  0 mm
04:54 64.3 °F /  17.9 °C 57.3 °F /  14.1 °C 29.87 in /  1011.4 hPa North 3.3 mph /  5.3 km/h 10.4 mph /  16.7 km/h 78 % 0.00 in /  0 mm
04:59 64.2 °F /  17.9 °C 56.8 °F /  13.8 °C 29.87 in /  1011.4 hPa NNE 3.0 mph /  4.8 km/h 8.1 mph /  13 km/h 77 % 0.00 in /  0 mm
05:04 64.1 °F /  17.8 °C 57.1 °F /  13.9 °C 29.87 in /  1011.4 hPa NNE 3.1 mph /  5 km/h 6.9 mph /  11.1 km/h 78 % 0.00 in /  0 mm
05:09 63.9 °F /  17.7 °C 56.5 °F /  13.6 °C 29.88 in /  1011.7 hPa NNE 3.8 mph /  6.1 km/h 5.8 mph /  9.3 km/h 77 % 0.00 in /  0 mm
05:14 63.8 °F /  17.7 °C 56.8 °F /  13.8 °C 29.88 in /  1011.7 hPa NNE 6.8 mph /  10.9 km/h 10.4 mph /  16.7 km/h 78 % 0.00 in /  0 mm
05:19 63.8 °F /  17.7 °C 57.2 °F /  14 °C 29.87 in /  1011.4 hPa North 2.7 mph /  4.3 km/h 4.6 mph /  7.4 km/h 79 % 0.00 in /  0 mm
05:24 63.7 °F /  17.6 °C 57.1 °F /  13.9 °C 29.88 in /  1011.7 hPa North 5.8 mph /  9.3 km/h 10.4 mph /  16.7 km/h 79 % 0.00 in /  0 mm
05:29 63.6 °F /  17.6 °C 57.0 °F /  13.9 °C 29.87 in /  1011.4 hPa NNE 6.1 mph /  9.8 km/h 9.2 mph /  14.8 km/h 79 % 0.00 in /  0 mm
05:34 63.6 °F /  17.6 °C 57.0 °F /  13.9 °C 29.88 in /  1011.7 hPa NNE 4.8 mph /  7.7 km/h 8.1 mph /  13 km/h 79 % 0.00 in /  0 mm
05:39 63.5 °F /  17.5 °C 56.9 °F /  13.8 °C 29.88 in /  1011.7 hPa North 3.8 mph /  6.1 km/h 5.8 mph /  9.3 km/h 79 % 0.00 in /  0 mm
05:44 63.5 °F /  17.5 °C 57.2 °F /  14 °C 29.88 in /  1011.7 hPa North 4.0 mph /  6.4 km/h 6.0 mph /  9.7 km/h 80 % 0.00 in /  0 mm
05:49 63.4 °F /  17.4 °C 56.8 °F /  13.8 °C 29.89 in /  1012.1 hPa NNE 4.8 mph /  7.7 km/h 9.2 mph /  14.8 km/h 79 % 0.00 in /  0 mm
05:54 63.4 °F /  17.4 °C 57.1 °F /  13.9 °C 29.89 in /  1012.1 hPa NNE 3.1 mph /  5 km/h 6.0 mph /  9.7 km/h 80 % 0.00 in /  0 mm
05:59 63.3 °F /  17.4 °C 57.0 °F /  13.9 °C 29.89 in /  1012.1 hPa North 5.5 mph /  8.9 km/h 9.0 mph /  14.5 km/h 80 % 0.00 in /  0 mm
06:04 63.3 °F /  17.4 °C 57.0 °F /  13.9 °C 29.89 in /  1012.1 hPa ENE 3.0 mph /  4.8 km/h 6.9 mph /  11.1 km/h 80 % 0.00 in /  0 mm
06:09 63.2 °F /  17.3 °C 56.9 °F /  13.8 °C 29.89 in /  1012.1 hPa North 3.9 mph /  6.3 km/h 5.0 mph /  8 km/h 80 % 0.00 in /  0 mm
06:14 63.2 °F /  17.3 °C 56.9 °F /  13.8 °C 29.89 in /  1012.1 hPa NNE 2.5 mph /  4 km/h 8.1 mph /  13 km/h 80 % 0.00 in /  0 mm
06:19 63.2 °F /  17.3 °C 57.3 °F /  14.1 °C 29.90 in /  1012.4 hPa NNE 4.0 mph /  6.4 km/h 5.8 mph /  9.3 km/h 81 % 0.00 in /  0 mm
06:29 63.2 °F /  17.3 °C 56.9 °F /  13.8 °C 29.90 in /  1012.4 hPa NNE 6.2 mph /  10 km/h 11.5 mph /  18.5 km/h 80 % 0.00 in /  0 mm
06:34 63.3 °F /  17.4 °C 57.0 °F /  13.9 °C 29.90 in /  1012.4 hPa North 2.7 mph /  4.3 km/h 9.2 mph /  14.8 km/h 80 % 0.00 in /  0 mm
06:39 63.4 °F /  17.4 °C 57.1 °F /  13.9 °C 29.90 in /  1012.4 hPa NE 3.1 mph /  5 km/h 5.8 mph /  9.3 km/h 80 % 0.00 in /  0 mm
06:44 63.6 °F /  17.6 °C 57.3 °F /  14.1 °C 29.90 in /  1012.4 hPa North 4.6 mph /  7.4 km/h 8.1 mph /  13 km/h 80 % 0.00 in /  0 mm
06:47 63.7 °F /  17.6 °C 57.1 °F /  13.9 °C 29.90 in /  1012.4 hPa NNE 3.8 mph /  6.1 km/h 6.0 mph /  9.7 km/h 79 % 0.00 in /  0 mm
06:52 63.9 °F /  17.7 °C 57.3 °F /  14.1 °C 29.90 in /  1012.4 hPa North 4.7 mph /  7.6 km/h 8.1 mph /  13 km/h 79 % 0.00 in /  0 mm
06:57 64.1 °F /  17.8 °C 57.1 °F /  13.9 °C 29.91 in /  1012.8 hPa North 6.0 mph /  9.7 km/h 9.2 mph /  14.8 km/h 78 % 0.00 in /  0 mm
07:03 64.4 °F /  18 °C 57.0 °F /  13.9 °C 29.91 in /  1012.8 hPa NNE 4.8 mph /  7.7 km/h 10.4 mph /  16.7 km/h 77 % 0.00 in /  0 mm
07:08 64.7 °F /  18.2 °C 57.3 °F /  14.1 °C 29.92 in /  1013.1 hPa North 3.1 mph /  5 km/h 5.8 mph /  9.3 km/h 77 % 0.00 in /  0 mm
07:13 65.1 °F /  18.4 °C 57.7 °F /  14.3 °C 29.92 in /  1013.1 hPa NNE 5.1 mph /  8.2 km/h 11.5 mph /  18.5 km/h 77 % 0.00 in /  0 mm
07:18 65.4 °F /  18.6 °C 57.6 °F /  14.2 °C 29.92 in /  1013.1 hPa NE 4.6 mph /  7.4 km/h 9.2 mph /  14.8 km/h 76 % 0.00 in /  0 mm
07:23 65.8 °F /  18.8 °C 58.0 °F /  14.4 °C 29.92 in /  1013.1 hPa North 6.0 mph /  9.7 km/h 10.4 mph /  16.7 km/h 76 % 0.00 in /  0 mm
07:28 66.1 °F /  18.9 °C 58.3 °F /  14.6 °C 29.92 in /  1013.1 hPa North 3.4 mph /  5.5 km/h 8.1 mph /  13 km/h 76 % 0.00 in /  0 mm
07:33 66.3 °F /  19.1 °C 58.5 °F /  14.7 °C 29.92 in /  1013.1 hPa NE 4.4 mph /  7.1 km/h 8.1 mph /  13 km/h 76 % 0.00 in /  0 mm
07:38 66.5 °F /  19.2 °C 58.7 °F /  14.8 °C 29.92 in /  1013.1 hPa North 5.3 mph /  8.5 km/h 9.2 mph /  14.8 km/h 76 % 0.00 in /  0 mm
07:43 66.7 °F /  19.3 °C 58.1 °F /  14.5 °C 29.92 in /  1013.1 hPa NNE 5.8 mph /  9.3 km/h 9.2 mph /  14.8 km/h 74 % 0.00 in /  0 mm
07:44 66.7 °F /  19.3 °C 58.1 °F /  14.5 °C 29.92 in /  1013.1 hPa NNE 2.4 mph /  3.9 km/h 5.8 mph /  9.3 km/h 74 % 0.00 in /  0 mm
07:49 66.7 °F /  19.3 °C 57.8 °F /  14.3 °C 29.92 in /  1013.1 hPa NNE 4.0 mph /  6.4 km/h 8.1 mph /  13 km/h 73 % 0.00 in /  0 mm
07:54 66.7 °F /  19.3 °C 57.4 °F /  14.1 °C 29.93 in /  1013.4 hPa NNE 4.7 mph /  7.6 km/h 8.1 mph /  13 km/h 72 % 0.00 in /  0 mm
07:59 66.6 °F /  19.2 °C 57.7 °F /  14.3 °C 29.93 in /  1013.4 hPa North 2.8 mph /  4.5 km/h 5.8 mph /  9.3 km/h 73 % 0.00 in /  0 mm
08:04 66.7 °F /  19.3 °C 57.8 °F /  14.3 °C 29.93 in /  1013.4 hPa NNE 4.0 mph /  6.4 km/h 5.8 mph /  9.3 km/h 73 % 0.00 in /  0 mm
08:09 66.6 °F /  19.2 °C 57.7 °F /  14.3 °C 29.93 in /  1013.4 hPa ENE 5.5 mph /  8.9 km/h 8.1 mph /  13 km/h 73 % 0.00 in /  0 mm
08:14 66.6 °F /  19.2 °C 57.7 °F /  14.3 °C 29.93 in /  1013.4 hPa NNE 2.9 mph /  4.7 km/h 5.8 mph /  9.3 km/h 73 % 0.00 in /  0 mm
08:19 66.6 °F /  19.2 °C 57.7 °F /  14.3 °C 29.93 in /  1013.4 hPa NNW 5.3 mph /  8.5 km/h 8.1 mph /  13 km/h 73 % 0.00 in /  0 mm
08:24 66.6 °F /  19.2 °C 57.7 °F /  14.3 °C 29.93 in /  1013.4 hPa NNE 5.7 mph /  9.2 km/h 8.1 mph /  13 km/h 73 % 0.00 in /  0 mm
08:29 66.8 °F /  19.3 °C 57.9 °F /  14.4 °C 29.94 in /  1013.8 hPa NNE 2.7 mph /  4.3 km/h 3.5 mph /  5.6 km/h 73 % 0.00 in /  0 mm
08:34 66.9 °F /  19.4 °C 57.6 °F /  14.2 °C 29.93 in /  1013.4 hPa North 2.2 mph /  3.5 km/h 8.1 mph /  13 km/h 72 % 0.00 in /  0 mm
08:39 67.2 °F /  19.6 °C 58.2 °F /  14.6 °C 29.93 in /  1013.4 hPa North 2.6 mph /  4.2 km/h 6.0 mph /  9.7 km/h 73 % 0.00 in /  0 mm
08:44 67.3 °F /  19.6 °C 58.0 °F /  14.4 °C 29.94 in /  1013.8 hPa NNW 3.8 mph /  6.1 km/h 5.8 mph /  9.3 km/h 72 % 0.00 in /  0 mm
08:49 67.4 °F /  19.7 °C 58.1 °F /  14.5 °C 29.93 in /  1013.4 hPa NE 5.1 mph /  8.2 km/h 8.1 mph /  13 km/h 72 % 0.00 in /  0 mm
08:54 67.4 °F /  19.7 °C 57.7 °F /  14.3 °C 29.93 in /  1013.4 hPa NNE 6.0 mph /  9.7 km/h 8.0 mph /  12.9 km/h 71 % 0.00 in /  0 mm
08:59 67.5 °F /  19.7 °C 58.2 °F /  14.6 °C 29.94 in /  1013.8 hPa NNW 4.3 mph /  6.9 km/h 8.1 mph /  13 km/h 72 % 0.00 in /  0 mm
09:01 67.6 °F /  19.8 °C 57.9 °F /  14.4 °C 29.94 in /  1013.8 hPa NNE 5.5 mph /  8.9 km/h 8.1 mph /  13 km/h 71 % 0.00 in /  0 mm
09:06 67.7 °F /  19.8 °C 58.0 °F /  14.4 °C 29.94 in /  1013.8 hPa NE 5.8 mph /  9.3 km/h 8.1 mph /  13 km/h 71 % 0.00 in /  0 mm
09:11 67.9 °F /  19.9 °C 58.5 °F /  14.7 °C 29.94 in /  1013.8 hPa NNW 1.9 mph /  3.1 km/h 8.1 mph /  13 km/h 72 % 0.00 in /  0 mm
09:16 68.0 °F /  20 °C 58.6 °F /  14.8 °C 29.94 in /  1013.8 hPa SSE 2.1 mph /  3.4 km/h 4.6 mph /  7.4 km/h 72 % 0.00 in /  0 mm
09:21 68.1 °F /  20.1 °C 58.3 °F /  14.6 °C 29.94 in /  1013.8 hPa North 2.3 mph /  3.7 km/h 3.5 mph /  5.6 km/h 71 % 0.00 in /  0 mm
09:26 68.2 °F /  20.1 °C 58.4 °F /  14.7 °C 29.94 in /  1013.8 hPa North 2.6 mph /  4.2 km/h 6.9 mph /  11.1 km/h 71 % 0.00 in /  0 mm
09:31 68.3 °F /  20.2 °C 58.5 °F /  14.7 °C 29.94 in /  1013.8 hPa NE 2.4 mph /  3.9 km/h 9.0 mph /  14.5 km/h 71 % 0.00 in /  0 mm
09:36 68.4 °F /  20.2 °C 58.2 °F /  14.6 °C 29.94 in /  1013.8 hPa North 2.0 mph /  3.2 km/h 4.0 mph /  6.4 km/h 70 % 0.00 in /  0 mm
09:41 68.6 °F /  20.3 °C 58.4 °F /  14.7 °C 29.95 in /  1014.1 hPa NE 5.2 mph /  8.4 km/h 6.0 mph /  9.7 km/h 70 % 0.00 in /  0 mm
09:43 68.7 °F /  20.4 °C 58.5 °F /  14.7 °C 29.94 in /  1013.8 hPa NNE 1.9 mph /  3.1 km/h 6.9 mph /  11.1 km/h 70 % 0.00 in /  0 mm
09:48 69.0 °F /  20.6 °C 58.4 °F /  14.7 °C 29.94 in /  1013.8 hPa NNE 4.3 mph /  6.9 km/h 7.0 mph /  11.3 km/h 69 % 0.00 in /  0 mm
09:53 69.2 °F /  20.7 °C 58.6 °F /  14.8 °C 29.94 in /  1013.8 hPa NNE 1.3 mph /  2.1 km/h 2.3 mph /  3.7 km/h 69 % 0.00 in /  0 mm
09:58 69.6 °F /  20.9 °C 59.0 °F /  15 °C 29.95 in /  1014.1 hPa NE 1.8 mph /  2.9 km/h 6.9 mph /  11.1 km/h 69 % 0.00 in /  0 mm
10:03 70.2 °F /  21.2 °C 59.6 °F /  15.3 °C 29.95 in /  1014.1 hPa NE 4.0 mph /  6.4 km/h 6.9 mph /  11.1 km/h 69 % 0.00 in /  0 mm
10:08 71.0 °F /  21.7 °C 58.6 °F /  14.8 °C 29.95 in /  1014.1 hPa North 1.9 mph /  3.1 km/h 6.0 mph /  9.7 km/h 65 % 0.00 in /  0 mm
10:13 71.9 °F /  22.2 °C 59.9 °F /  15.5 °C 29.95 in /  1014.1 hPa NNW 0.8 mph /  1.3 km/h 3.5 mph /  5.6 km/h 66 % 0.00 in /  0 mm
10:18 72.8 °F /  22.7 °C 59.0 °F /  15 °C 29.95 in /  1014.1 hPa ENE 3.0 mph /  4.8 km/h 7.0 mph /  11.3 km/h 62 % 0.00 in /  0 mm
10:23 73.7 °F /  23.2 °C 60.3 °F /  15.7 °C 29.95 in /  1014.1 hPa North 2.2 mph /  3.5 km/h 5.8 mph /  9.3 km/h 63 % 0.00 in /  0 mm
10:28 74.6 °F /  23.7 °C 60.7 °F /  15.9 °C 29.95 in /  1014.1 hPa North 1.5 mph /  2.4 km/h 3.5 mph /  5.6 km/h 62 % 0.00 in /  0 mm
10:33 75.6 °F /  24.2 °C 60.3 °F /  15.7 °C 29.95 in /  1014.1 hPa NE 3.3 mph /  5.3 km/h 4.6 mph /  7.4 km/h 59 % 0.00 in /  0 mm
10:38 76.5 °F /  24.7 °C 61.1 °F /  16.2 °C 29.95 in /  1014.1 hPa NNE 4.5 mph /  7.2 km/h 6.9 mph /  11.1 km/h 59 % 0.00 in /  0 mm
10:43 77.4 °F /  25.2 °C 61.9 °F /  16.6 °C 29.95 in /  1014.1 hPa NE 1.5 mph /  2.4 km/h 2.3 mph /  3.7 km/h 59 % 0.00 in /  0 mm
10:48 78.3 °F /  25.7 °C 62.3 °F /  16.8 °C 29.95 in /  1014.1 hPa NNE 2.8 mph /  4.5 km/h 4.6 mph /  7.4 km/h 58 % 0.00 in /  0 mm
10:53 79.0 °F /  26.1 °C 60.9 °F /  16.1 °C 29.95 in /  1014.1 hPa North 1.5 mph /  2.4 km/h 3.5 mph /  5.6 km/h 54 % 0.00 in /  0 mm
10:58 79.4 °F /  26.3 °C 61.3 °F /  16.3 °C 29.95 in /  1014.1 hPa North 1.9 mph /  3.1 km/h 4.0 mph /  6.4 km/h 54 % 0.00 in /  0 mm
11:03 80.0 °F /  26.7 °C 60.8 °F /  16 °C 29.96 in /  1014.4 hPa ENE 2.7 mph /  4.3 km/h 3.5 mph /  5.6 km/h 52 % 0.00 in /  0 mm
11:08 80.2 °F /  26.8 °C 61.5 °F /  16.4 °C 29.96 in /  1014.4 hPa NE 1.1 mph /  1.8 km/h 2.3 mph /  3.7 km/h 53 % 0.00 in /  0 mm
11:13 80.6 °F /  27 °C 61.9 °F /  16.6 °C 29.95 in /  1014.1 hPa NNW 2.6 mph /  4.2 km/h 3.5 mph /  5.6 km/h 53 % 0.00 in /  0 mm
11:18 81.0 °F /  27.2 °C 62.3 °F /  16.8 °C 29.96 in /  1014.4 hPa North 3.7 mph /  6 km/h 4.6 mph /  7.4 km/h 53 % 0.00 in /  0 mm
11:23 81.3 °F /  27.4 °C 62.0 °F /  16.7 °C 29.96 in /  1014.4 hPa NE 0.4 mph /  0.6 km/h 1.2 mph /  1.9 km/h 52 % 0.00 in /  0 mm
11:29 81.6 °F /  27.6 °C 61.2 °F /  16.2 °C 29.96 in /  1014.4 hPa North 2.3 mph /  3.7 km/h 4.6 mph /  7.4 km/h 50 % 0.00 in /  0 mm
11:34 81.8 °F /  27.7 °C 60.2 °F /  15.7 °C 29.96 in /  1014.4 hPa ENE 1.4 mph /  2.3 km/h 3.5 mph /  5.6 km/h 48 % 0.00 in /  0 mm
11:39 82.0 °F /  27.8 °C 61.0 °F /  16.1 °C 29.96 in /  1014.4 hPa NNW 2.5 mph /  4 km/h 5.8 mph /  9.3 km/h 49 % 0.00 in /  0 mm
11:44 82.1 °F /  27.8 °C 60.5 °F /  15.8 °C 29.96 in /  1014.4 hPa ENE 1.4 mph /  2.3 km/h 4.0 mph /  6.4 km/h 48 % 0.00 in /  0 mm
11:49 82.0 °F /  27.8 °C 61.0 °F /  16.1 °C 29.96 in /  1014.4 hPa SE 0.1 mph /  0.2 km/h 1.2 mph /  1.9 km/h 49 % 0.00 in /  0 mm
11:54 82.2 °F /  27.9 °C 60.6 °F /  15.9 °C 29.96 in /  1014.4 hPa NE 1.8 mph /  2.9 km/h 3.5 mph /  5.6 km/h 48 % 0.00 in /  0 mm
11:59 82.3 °F /  27.9 °C 59.4 °F /  15.2 °C 29.96 in /  1014.4 hPa NE 1.0 mph /  1.6 km/h 2.3 mph /  3.7 km/h 46 % 0.00 in /  0 mm
12:04 82.4 °F /  28 °C 57.7 °F /  14.3 °C 29.96 in /  1014.4 hPa NNE 2.5 mph /  4 km/h 3.5 mph /  5.6 km/h 43 % 0.00 in /  0 mm
12:09 82.3 °F /  27.9 °C 56.2 °F /  13.4 °C 29.96 in /  1014.4 hPa ENE 2.9 mph /  4.7 km/h 5.0 mph /  8 km/h 41 % 0.00 in /  0 mm
12:14 82.0 °F /  27.8 °C 59.2 °F /  15.1 °C 29.97 in /  1014.8 hPa NNE 1.8 mph /  2.9 km/h 4.6 mph /  7.4 km/h 46 % 0.00 in /  0 mm
12:19 82.6 °F /  28.1 °C 60.3 °F /  15.7 °C 29.97 in /  1014.8 hPa Calm     47 % 0.00 in /  0 mm
12:24 83.0 °F /  28.3 °C 58.2 °F /  14.6 °C 29.97 in /  1014.8 hPa NE 1.1 mph /  1.8 km/h 3.5 mph /  5.6 km/h 43 % 0.00 in /  0 mm
12:29 83.3 °F /  28.5 °C 58.5 °F /  14.7 °C 29.97 in /  1014.8 hPa NNE 1.1 mph /  1.8 km/h 3.5 mph /  5.6 km/h 43 % 0.00 in /  0 mm
12:34 83.5 °F /  28.6 °C 59.9 °F /  15.5 °C 29.97 in /  1014.8 hPa Calm   2.3 mph /  3.7 km/h 45 % 0.00 in /  0 mm
12:36 83.7 °F /  28.7 °C 60.1 °F /  15.6 °C 29.97 in /  1014.8 hPa NNW 3.2 mph /  5.1 km/h 4.6 mph /  7.4 km/h 45 % 0.00 in /  0 mm
12:42 83.8 °F /  28.8 °C 58.3 °F /  14.6 °C 29.97 in /  1014.8 hPa North 2.4 mph /  3.9 km/h 4.6 mph /  7.4 km/h 42 % 0.00 in /  0 mm
12:47 83.9 °F /  28.8 °C 57.0 °F /  13.9 °C 29.97 in /  1014.8 hPa NNE 0.1 mph /  0.2 km/h 1.2 mph /  1.9 km/h 40 % 0.00 in /  0 mm
12:52 83.9 °F /  28.8 °C 58.3 °F /  14.6 °C 29.97 in /  1014.8 hPa NNE 0.8 mph /  1.3 km/h 2.3 mph /  3.7 km/h 42 % 0.00 in /  0 mm
12:57 84.0 °F /  28.9 °C 57.8 °F /  14.3 °C 29.97 in /  1014.8 hPa NNE 0.4 mph /  0.6 km/h 3.5 mph /  5.6 km/h 41 % 0.00 in /  0 mm
13:02 84.0 °F /  28.9 °C 56.4 °F /  13.6 °C 29.97 in /  1014.8 hPa ENE 1.0 mph /  1.6 km/h 3.5 mph /  5.6 km/h 39 % 0.00 in /  0 mm
13:07 83.9 °F /  28.8 °C 59.7 °F /  15.4 °C 29.97 in /  1014.8 hPa NE 0.8 mph /  1.3 km/h 2.3 mph /  3.7 km/h 44 % 0.00 in /  0 mm
13:12 84.1 °F /  28.9 °C 59.2 °F /  15.1 °C 29.97 in /  1014.8 hPa Calm   1.0 mph /  1.6 km/h 43 % 0.00 in /  0 mm
13:17 84.4 °F /  29.1 °C 57.4 °F /  14.1 °C 29.97 in /  1014.8 hPa NE 1.3 mph /  2.1 km/h 3.5 mph /  5.6 km/h 40 % 0.00 in /  0 mm
13:22 84.4 °F /  29.1 °C 56.0 °F /  13.3 °C 29.97 in /  1014.8 hPa NNW 0.1 mph /  0.2 km/h 1.2 mph /  1.9 km/h 38 % 0.00 in /  0 mm
13:27 84.2 °F /  29 °C 56.6 °F /  13.7 °C 29.97 in /  1014.8 hPa NNE 0.4 mph /  0.6 km/h 3.5 mph /  5.6 km/h 39 % 0.00 in /  0 mm
13:32 84.3 °F /  29.1 °C 57.3 °F /  14.1 °C 29.97 in /  1014.8 hPa ENE 0.1 mph /  0.2 km/h 1.2 mph /  1.9 km/h 40 % 0.00 in /  0 mm
13:37 84.5 °F /  29.2 °C 58.9 °F /  14.9 °C 29.97 in /  1014.8 hPa NE 0.5 mph /  0.8 km/h 2.3 mph /  3.7 km/h 42 % 0.00 in /  0 mm
13:42 84.5 °F /  29.2 °C 57.5 °F /  14.2 °C 29.97 in /  1014.8 hPa ENE 0.6 mph /  1 km/h 1.2 mph /  1.9 km/h 40 % 0.00 in /  0 mm
13:47 84.6 °F /  29.2 °C 55.5 °F /  13.1 °C 29.97 in /  1014.8 hPa ENE 0.9 mph /  1.4 km/h 2.3 mph /  3.7 km/h 37 % 0.00 in /  0 mm
13:52 84.5 °F /  29.2 °C 56.1 °F /  13.4 °C 29.97 in /  1014.8 hPa NNE 0.1 mph /  0.2 km/h 1.2 mph /  1.9 km/h 38 % 0.00 in /  0 mm
13:57 84.5 °F /  29.2 °C 57.5 °F /  14.2 °C 29.97 in /  1014.8 hPa Calm   1.0 mph /  1.6 km/h 40 % 0.00 in /  0 mm
14:02 84.5 °F /  29.2 °C 54.6 °F /  12.6 °C 29.97 in /  1014.8 hPa NNE 0.9 mph /  1.4 km/h 2.3 mph /  3.7 km/h 36 % 0.00 in /  0 mm
14:07 84.4 °F /  29.1 °C 55.3 °F /  12.9 °C 29.97 in /  1014.8 hPa ENE 0.5 mph /  0.8 km/h 2.3 mph /  3.7 km/h 37 % 0.00 in /  0 mm
14:13 84.4 °F /  29.1 °C 56.0 °F /  13.3 °C 29.97 in /  1014.8 hPa NE 0.1 mph /  0.2 km/h 1.2 mph /  1.9 km/h 38 % 0.00 in /  0 mm
14:18 84.5 °F /  29.2 °C 53.8 °F /  12.1 °C 29.97 in /  1014.8 hPa Calm   3.5 mph /  5.6 km/h 35 % 0.00 in /  0 mm
14:23 84.6 °F /  29.2 °C 54.7 °F /  12.6 °C 29.97 in /  1014.8 hPa NNW 1.6 mph /  2.6 km/h 3.5 mph /  5.6 km/h 36 % 0.00 in /  0 mm
14:28 84.6 °F /  29.2 °C 55.5 °F /  13.1 °C 29.97 in /  1014.8 hPa Calm   1.2 mph /  1.9 km/h 37 % 0.00 in /  0 mm
14:33 84.6 °F /  29.2 °C 56.2 °F /  13.4 °C 29.97 in /  1014.8 hPa East 0.1 mph /  0.2 km/h 1.2 mph /  1.9 km/h 38 % 0.00 in /  0 mm
14:35 84.6 °F /  29.2 °C 56.2 °F /  13.4 °C 29.97 in /  1014.8 hPa Calm     38 % 0.00 in /  0 mm
14:40 84.8 °F /  29.3 °C 55.6 °F /  13.1 °C 29.97 in /  1014.8 hPa NE 1.4 mph /  2.3 km/h 3.5 mph /  5.6 km/h 37 % 0.00 in /  0 mm
14:45 85.0 °F /  29.4 °C 57.3 °F /  14.1 °C 29.97 in /  1014.8 hPa North 2.0 mph /  3.2 km/h 4.0 mph /  6.4 km/h 39 % 0.00 in /  0 mm
14:50 85.2 °F /  29.6 °C 57.4 °F /  14.1 °C 29.97 in /  1014.8 hPa NNW 1.3 mph /  2.1 km/h 4.0 mph /  6.4 km/h 39 % 0.00 in /  0 mm
14:55 85.5 °F /  29.7 °C 57.7 °F /  14.3 °C 29.97 in /  1014.8 hPa NNW 1.0 mph /  1.6 km/h 3.0 mph /  4.8 km/h 39 % 0.00 in /  0 mm
15:00 85.6 °F /  29.8 °C 57.8 °F /  14.3 °C 29.97 in /  1014.8 hPa North 1.6 mph /  2.6 km/h 3.0 mph /  4.8 km/h 39 % 0.00 in /  0 mm
15:06 85.7 °F /  29.8 °C 57.1 °F /  13.9 °C 29.97 in /  1014.8 hPa NNE 1.0 mph /  1.6 km/h 5.0 mph /  8 km/h 38 % 0.00 in /  0 mm
15:11 85.8 °F /  29.9 °C 57.3 °F /  14.1 °C 29.97 in /  1014.8 hPa WNW 1.5 mph /  2.4 km/h 4.6 mph /  7.4 km/h 38 % 0.00 in /  0 mm
15:16 85.8 °F /  29.9 °C 58.0 °F /  14.4 °C 29.96 in /  1014.4 hPa West 0.3 mph /  0.5 km/h 2.0 mph /  3.2 km/h 39 % 0.00 in /  0 mm
15:21 85.6 °F /  29.8 °C 57.8 °F /  14.3 °C 29.97 in /  1014.8 hPa North 0.8 mph /  1.3 km/h 3.5 mph /  5.6 km/h 39 % 0.00 in /  0 mm
15:26 85.6 °F /  29.8 °C 58.5 °F /  14.7 °C 29.96 in /  1014.4 hPa WNW 1.6 mph /  2.6 km/h 3.5 mph /  5.6 km/h 40 % 0.00 in /  0 mm
15:31 85.7 °F /  29.8 °C 57.2 °F /  14 °C 29.96 in /  1014.4 hPa Calm   4.0 mph /  6.4 km/h 38 % 0.00 in /  0 mm
15:36 85.8 °F /  29.9 °C 58.7 °F /  14.8 °C 29.96 in /  1014.4 hPa WNW 1.0 mph /  1.6 km/h 4.0 mph /  6.4 km/h 40 % 0.00 in /  0 mm
15:41 85.8 °F /  29.9 °C 58.7 °F /  14.8 °C 29.96 in /  1014.4 hPa West 2.0 mph /  3.2 km/h 4.0 mph /  6.4 km/h 40 % 0.00 in /  0 mm
15:46 85.9 °F /  29.9 °C 59.5 °F /  15.3 °C 29.96 in /  1014.4 hPa West 3.0 mph /  4.8 km/h 6.0 mph /  9.7 km/h 41 % 0.00 in /  0 mm
15:51 85.9 °F /  29.9 °C 58.1 °F /  14.5 °C 29.96 in /  1014.4 hPa WNW 1.0 mph /  1.6 km/h 5.0 mph /  8 km/h 39 % 0.00 in /  0 mm
15:56 85.9 °F /  29.9 °C 58.1 °F /  14.5 °C 29.96 in /  1014.4 hPa WSW 3.0 mph /  4.8 km/h 5.0 mph /  8 km/h 39 % 0.00 in /  0 mm
16:01 85.9 °F /  29.9 °C 58.8 °F /  14.9 °C 29.96 in /  1014.4 hPa WNW 0.1 mph /  0.2 km/h 2.3 mph /  3.7 km/h 40 % 0.00 in /  0 mm
16:06 85.9 °F /  29.9 °C 57.3 °F /  14.1 °C 29.96 in /  1014.4 hPa WSW 0.2 mph /  0.3 km/h 1.2 mph /  1.9 km/h 38 % 0.00 in /  0 mm
16:11 86.0 °F /  30 °C 58.2 °F /  14.6 °C 29.96 in /  1014.4 hPa WNW 1.9 mph /  3.1 km/h 3.5 mph /  5.6 km/h 39 % 0.00 in /  0 mm
16:16 85.8 °F /  29.9 °C 59.4 °F /  15.2 °C 29.96 in /  1014.4 hPa SW 1.8 mph /  2.9 km/h 4.6 mph /  7.4 km/h 41 % 0.00 in /  0 mm
16:21 85.8 °F /  29.9 °C 58.7 °F /  14.8 °C 29.96 in /  1014.4 hPa WSW 0.7 mph /  1.1 km/h 4.0 mph /  6.4 km/h 40 % 0.00 in /  0 mm
16:26 85.7 °F /  29.8 °C 57.9 °F /  14.4 °C 29.96 in /  1014.4 hPa WSW 2.9 mph /  4.7 km/h 4.6 mph /  7.4 km/h 39 % 0.00 in /  0 mm
16:31 85.6 °F /  29.8 °C 59.2 °F /  15.1 °C 29.96 in /  1014.4 hPa WSW 2.1 mph /  3.4 km/h 3.5 mph /  5.6 km/h 41 % 0.00 in /  0 mm
16:35 85.5 °F /  29.7 °C 57.7 °F /  14.3 °C 29.96 in /  1014.4 hPa West 3.0 mph /  4.8 km/h 5.8 mph /  9.3 km/h 39 % 0.00 in /  0 mm
16:40 85.4 °F /  29.7 °C 59.0 °F /  15 °C 29.96 in /  1014.4 hPa WNW 2.4 mph /  3.9 km/h 3.5 mph /  5.6 km/h 41 % 0.00 in /  0 mm
16:45 85.3 °F /  29.6 °C 58.9 °F /  14.9 °C 29.96 in /  1014.4 hPa WNW 1.8 mph /  2.9 km/h 5.8 mph /  9.3 km/h 41 % 0.00 in /  0 mm
16:50 85.2 °F /  29.6 °C 59.5 °F /  15.3 °C 29.96 in /  1014.4 hPa SW 3.2 mph /  5.1 km/h 4.6 mph /  7.4 km/h 42 % 0.00 in /  0 mm
16:55 85.2 °F /  29.6 °C 58.8 °F /  14.9 °C 29.96 in /  1014.4 hPa SW 2.3 mph /  3.7 km/h 3.5 mph /  5.6 km/h 41 % 0.00 in /  0 mm
17:00 85.0 °F /  29.4 °C 58.7 °F /  14.8 °C 29.96 in /  1014.4 hPa West 1.5 mph /  2.4 km/h 4.6 mph /  7.4 km/h 41 % 0.00 in /  0 mm
17:05 85.0 °F /  29.4 °C 59.3 °F /  15.2 °C 29.96 in /  1014.4 hPa North 0.1 mph /  0.2 km/h 1.2 mph /  1.9 km/h 42 % 0.00 in /  0 mm
17:10 84.8 °F /  29.3 °C 59.2 °F /  15.1 °C 29.96 in /  1014.4 hPa SW 2.7 mph /  4.3 km/h 6.0 mph /  9.7 km/h 42 % 0.00 in /  0 mm
17:15 84.7 °F /  29.3 °C 59.7 °F /  15.4 °C 29.96 in /  1014.4 hPa WNW 1.2 mph /  1.9 km/h 3.5 mph /  5.6 km/h 43 % 0.00 in /  0 mm
17:20 84.3 °F /  29.1 °C 59.4 °F /  15.2 °C 29.96 in /  1014.4 hPa West 1.1 mph /  1.8 km/h 3.5 mph /  5.6 km/h 43 % 0.00 in /  0 mm
17:25 84.0 °F /  28.9 °C 59.7 °F /  15.4 °C 29.96 in /  1014.4 hPa SW 0.2 mph /  0.3 km/h 2.3 mph /  3.7 km/h 44 % 0.00 in /  0 mm
17:30 83.8 °F /  28.8 °C 59.6 °F /  15.3 °C 29.96 in /  1014.4 hPa WSW 1.6 mph /  2.6 km/h 4.0 mph /  6.4 km/h 44 % 0.00 in /  0 mm
17:35 83.6 °F /  28.7 °C 58.7 °F /  14.8 °C 29.96 in /  1014.4 hPa SW 2.9 mph /  4.7 km/h 4.0 mph /  6.4 km/h 43 % 0.00 in /  0 mm
17:40 83.3 °F /  28.5 °C 59.1 °F /  15.1 °C 29.96 in /  1014.4 hPa SSW 0.7 mph /  1.1 km/h 3.5 mph /  5.6 km/h 44 % 0.00 in /  0 mm
17:45 83.0 °F /  28.3 °C 58.8 °F /  14.9 °C 29.96 in /  1014.4 hPa SW 1.1 mph /  1.8 km/h 2.3 mph /  3.7 km/h 44 % 0.00 in /  0 mm
17:50 82.7 °F /  28.2 °C 57.9 °F /  14.4 °C 29.96 in /  1014.4 hPa WSW 2.4 mph /  3.9 km/h 5.0 mph /  8 km/h 43 % 0.00 in /  0 mm
17:55 82.3 °F /  27.9 °C 58.2 °F /  14.6 °C 29.96 in /  1014.4 hPa SW 2.6 mph /  4.2 km/h 4.0 mph /  6.4 km/h 44 % 0.00 in /  0 mm
18:00 82.0 °F /  27.8 °C 58.6 °F /  14.8 °C 29.96 in /  1014.4 hPa SW 0.8 mph /  1.3 km/h 4.0 mph /  6.4 km/h 45 % 0.00 in /  0 mm
18:05 81.7 °F /  27.6 °C 57.7 °F /  14.3 °C 29.96 in /  1014.4 hPa WNW 1.1 mph /  1.8 km/h 4.6 mph /  7.4 km/h 44 % 0.00 in /  0 mm
18:10 81.5 °F /  27.5 °C 58.7 °F /  14.8 °C 29.96 in /  1014.4 hPa WSW 1.7 mph /  2.7 km/h 5.0 mph /  8 km/h 46 % 0.00 in /  0 mm
18:15 81.2 °F /  27.3 °C 57.8 °F /  14.3 °C 29.96 in /  1014.4 hPa West 0.6 mph /  1 km/h 3.5 mph /  5.6 km/h 45 % 0.00 in /  0 mm
18:20 81.0 °F /  27.2 °C 57.7 °F /  14.3 °C 29.96 in /  1014.4 hPa WSW 2.5 mph /  4 km/h 4.6 mph /  7.4 km/h 45 % 0.00 in /  0 mm
18:25 80.7 °F /  27.1 °C 57.4 °F /  14.1 °C 29.96 in /  1014.4 hPa SW 2.9 mph /  4.7 km/h 4.6 mph /  7.4 km/h 45 % 0.00 in /  0 mm
18:30 80.6 °F /  27 °C 57.9 °F /  14.4 °C 29.96 in /  1014.4 hPa West 3.0 mph /  4.8 km/h 4.0 mph /  6.4 km/h 46 % 0.00 in /  0 mm
18:35 80.4 °F /  26.9 °C 58.3 °F /  14.6 °C 29.96 in /  1014.4 hPa WSW 2.3 mph /  3.7 km/h 4.6 mph /  7.4 km/h 47 % 0.00 in /  0 mm
18:40 80.2 °F /  26.8 °C 58.1 °F /  14.5 °C 29.96 in /  1014.4 hPa West 3.9 mph /  6.3 km/h 4.0 mph /  6.4 km/h 47 % 0.00 in /  0 mm
18:45 80.0 °F /  26.7 °C 58.5 °F /  14.7 °C 29.96 in /  1014.4 hPa West 3.1 mph /  5 km/h 3.5 mph /  5.6 km/h 48 % 0.00 in /  0 mm
18:51 79.9 °F /  26.6 °C 58.5 °F /  14.7 °C 29.96 in /  1014.4 hPa West 1.3 mph /  2.1 km/h 3.5 mph /  5.6 km/h 48 % 0.00 in /  0 mm
18:56 79.8 °F /  26.6 °C 58.9 °F /  14.9 °C 29.96 in /  1014.4 hPa WSW 0.6 mph /  1 km/h 2.0 mph /  3.2 km/h 49 % 0.00 in /  0 mm
19:00 79.7 °F /  26.5 °C 58.8 °F /  14.9 °C 29.96 in /  1014.4 hPa WSW 2.1 mph /  3.4 km/h 3.5 mph /  5.6 km/h 49 % 0.00 in /  0 mm
19:05 79.5 °F /  26.4 °C 58.7 °F /  14.8 °C 29.96 in /  1014.4 hPa WSW 1.9 mph /  3.1 km/h 2.3 mph /  3.7 km/h 49 % 0.00 in /  0 mm
19:10 79.5 °F /  26.4 °C 58.7 °F /  14.8 °C 29.95 in /  1014.1 hPa WSW 1.2 mph /  1.9 km/h 3.0 mph /  4.8 km/h 49 % 0.00 in /  0 mm
19:16 79.4 °F /  26.3 °C 59.1 °F /  15.1 °C 29.96 in /  1014.4 hPa WSW 1.0 mph /  1.6 km/h 3.0 mph /  4.8 km/h 50 % 0.00 in /  0 mm
19:21 79.2 °F /  26.2 °C 58.4 °F /  14.7 °C 29.96 in /  1014.4 hPa Calm     49 % 0.00 in /  0 mm
19:26 79.1 °F /  26.2 °C 58.3 °F /  14.6 °C 29.96 in /  1014.4 hPa Calm   1.0 mph /  1.6 km/h 49 % 0.00 in /  0 mm
19:31 78.9 °F /  26.1 °C 58.1 °F /  14.5 °C 29.96 in /  1014.4 hPa Calm   2.0 mph /  3.2 km/h 49 % 0.00 in /  0 mm
19:36 78.6 °F /  25.9 °C 58.4 °F /  14.7 °C 29.97 in /  1014.8 hPa Calm   1.2 mph /  1.9 km/h 50 % 0.00 in /  0 mm
19:41 78.4 °F /  25.8 °C 58.2 °F /  14.6 °C 29.97 in /  1014.8 hPa Calm   3.0 mph /  4.8 km/h 50 % 0.00 in /  0 mm
19:46 78.1 °F /  25.6 °C 58.5 °F /  14.7 °C 29.97 in /  1014.8 hPa NNW 0.1 mph /  0.2 km/h 1.2 mph /  1.9 km/h 51 % 0.00 in /  0 mm
19:51 77.8 °F /  25.4 °C 58.8 °F /  14.9 °C 29.97 in /  1014.8 hPa Calm     52 % 0.00 in /  0 mm
19:56 77.4 °F /  25.2 °C 59.0 °F /  15 °C 29.97 in /  1014.8 hPa Calm   1.0 mph /  1.6 km/h 53 % 0.00 in /  0 mm
20:01 77.0 °F /  25 °C 59.6 °F /  15.3 °C 29.98 in /  1015.1 hPa Calm     55 % 0.00 in /  0 mm
20:06 76.6 °F /  24.8 °C 59.7 °F /  15.4 °C 29.98 in /  1015.1 hPa Calm     56 % 0.00 in /  0 mm
20:11 76.2 °F /  24.6 °C 60.3 °F /  15.7 °C 29.98 in /  1015.1 hPa Calm   1.0 mph /  1.6 km/h 58 % 0.00 in /  0 mm
20:16 75.8 °F /  24.3 °C 60.4 °F /  15.8 °C 29.98 in /  1015.1 hPa Calm     59 % 0.00 in /  0 mm
20:21 75.3 °F /  24.1 °C 60.5 °F /  15.8 °C 29.98 in /  1015.1 hPa Calm     60 % 0.00 in /  0 mm
20:26 74.9 °F /  23.8 °C 61.0 °F /  16.1 °C 29.98 in /  1015.1 hPa Calm   1.0 mph /  1.6 km/h 62 % 0.00 in /  0 mm
20:31 74.4 °F /  23.6 °C 60.1 °F /  15.6 °C 29.99 in /  1015.5 hPa Calm   1.0 mph /  1.6 km/h 61 % 0.00 in /  0 mm
20:36 74.1 °F /  23.4 °C 59.3 °F /  15.2 °C 29.99 in /  1015.5 hPa Calm   1.0 mph /  1.6 km/h 60 % 0.00 in /  0 mm
20:41 73.9 °F /  23.3 °C 59.1 °F /  15.1 °C 29.99 in /  1015.5 hPa Calm   1.0 mph /  1.6 km/h 60 % 0.00 in /  0 mm
20:46 73.5 °F /  23.1 °C 58.8 °F /  14.9 °C 29.99 in /  1015.5 hPa Calm   2.0 mph /  3.2 km/h 60 % 0.00 in /  0 mm
20:51 73.2 °F /  22.9 °C 59.4 °F /  15.2 °C 29.99 in /  1015.5 hPa Calm   1.0 mph /  1.6 km/h 62 % 0.00 in /  0 mm
20:56 72.8 °F /  22.7 °C 59.5 °F /  15.3 °C 29.99 in /  1015.5 hPa Calm   2.0 mph /  3.2 km/h 63 % 0.00 in /  0 mm
21:01 72.4 °F /  22.4 °C 58.6 °F /  14.8 °C 29.99 in /  1015.5 hPa Calm     62 % 0.00 in /  0 mm
21:06 72.1 °F /  22.3 °C 58.4 °F /  14.7 °C 29.99 in /  1015.5 hPa WNW 0.9 mph /  1.4 km/h 2.3 mph /  3.7 km/h 62 % 0.00 in /  0 mm
21:11 71.8 °F /  22.1 °C 58.1 °F /  14.5 °C 29.99 in /  1015.5 hPa West 2.5 mph /  4 km/h 3.5 mph /  5.6 km/h 62 % 0.00 in /  0 mm
21:16 71.5 °F /  21.9 °C 57.8 °F /  14.3 °C 29.99 in /  1015.5 hPa West 0.4 mph /  0.6 km/h 2.3 mph /  3.7 km/h 62 % 0.00 in /  0 mm
21:21 71.3 °F /  21.8 °C 57.6 °F /  14.2 °C 30.00 in /  1015.8 hPa Calm     62 % 0.00 in /  0 mm
21:26 71.0 °F /  21.7 °C 57.8 °F /  14.3 °C 30.00 in /  1015.8 hPa Calm     63 % 0.00 in /  0 mm
21:31 70.8 °F /  21.6 °C 58.0 °F /  14.4 °C 30.00 in /  1015.8 hPa Calm     64 % 0.00 in /  0 mm
21:36 70.6 °F /  21.4 °C 57.8 °F /  14.3 °C 30.00 in /  1015.8 hPa West 0.4 mph /  0.6 km/h 1.2 mph /  1.9 km/h 64 % 0.00 in /  0 mm
21:41 70.3 °F /  21.3 °C 57.5 °F /  14.2 °C 30.01 in /  1016.1 hPa Calm     64 % 0.00 in /  0 mm
21:46 70.1 °F /  21.2 °C 57.8 °F /  14.3 °C 30.01 in /  1016.1 hPa Calm     65 % 0.00 in /  0 mm
21:51 69.9 °F /  21.1 °C 57.6 °F /  14.2 °C 30.01 in /  1016.1 hPa Calm     65 % 0.00 in /  0 mm
21:56 69.7 °F /  20.9 °C 57.8 °F /  14.3 °C 30.00 in /  1015.8 hPa West 0.1 mph /  0.2 km/h 1.0 mph /  1.6 km/h 66 % 0.00 in /  0 mm
22:01 69.4 °F /  20.8 °C 57.5 °F /  14.2 °C 30.01 in /  1016.1 hPa Calm   1.2 mph /  1.9 km/h 66 % 0.00 in /  0 mm
22:06 69.1 °F /  20.6 °C 57.3 °F /  14.1 °C 30.01 in /  1016.1 hPa West 0.8 mph /  1.3 km/h 2.3 mph /  3.7 km/h 66 % 0.00 in /  0 mm
22:11 68.9 °F /  20.5 °C 57.5 °F /  14.2 °C 30.01 in /  1016.1 hPa West 0.5 mph /  0.8 km/h 1.2 mph /  1.9 km/h 67 % 0.00 in /  0 mm
22:16 68.6 °F /  20.3 °C 57.2 °F /  14 °C 30.01 in /  1016.1 hPa Calm   1.2 mph /  1.9 km/h 67 % 0.00 in /  0 mm
22:21 68.5 °F /  20.3 °C 57.1 °F /  13.9 °C 30.01 in /  1016.1 hPa Calm     67 % 0.00 in /  0 mm
22:26 68.3 °F /  20.2 °C 57.3 °F /  14.1 °C 30.01 in /  1016.1 hPa Calm   1.2 mph /  1.9 km/h 68 % 0.00 in /  0 mm
22:31 68.1 °F /  20.1 °C 57.1 °F /  13.9 °C 30.01 in /  1016.1 hPa Calm   1.2 mph /  1.9 km/h 68 % 0.00 in /  0 mm
22:36 67.9 °F /  19.9 °C 56.9 °F /  13.8 °C 30.01 in /  1016.1 hPa West 0.3 mph /  0.5 km/h 1.2 mph /  1.9 km/h 68 % 0.00 in /  0 mm
22:41 67.8 °F /  19.9 °C 56.9 °F /  13.8 °C 30.01 in /  1016.1 hPa Calm     68 % 0.00 in /  0 mm
22:46 67.6 °F /  19.8 °C 56.7 °F /  13.7 °C 30.01 in /  1016.1 hPa West 1.3 mph /  2.1 km/h 1.3 mph /  2.1 km/h 68 % 0.00 in /  0 mm
22:52 67.5 °F /  19.7 °C 56.6 °F /  13.7 °C 30.01 in /  1016.1 hPa West 0.4 mph /  0.6 km/h 1.2 mph /  1.9 km/h 68 % 0.00 in /  0 mm
22:57 67.3 °F /  19.6 °C 56.4 °F /  13.6 °C 30.01 in /  1016.1 hPa Calm     68 % 0.00 in /  0 mm
23:02 67.2 °F /  19.6 °C 56.7 °F /  13.7 °C 30.01 in /  1016.1 hPa West 0.1 mph /  0.2 km/h 2.3 mph /  3.7 km/h 69 % 0.00 in /  0 mm
23:07 67.1 °F /  19.5 °C 56.6 °F /  13.7 °C 30.01 in /  1016.1 hPa Calm   1.2 mph /  1.9 km/h 69 % 0.00 in /  0 mm
23:12 67.0 °F /  19.4 °C 56.9 °F /  13.8 °C 30.01 in /  1016.1 hPa West 0.9 mph /  1.4 km/h 3.0 mph /  4.8 km/h 70 % 0.00 in /  0 mm
23:17 66.9 °F /  19.4 °C 56.8 °F /  13.8 °C 30.01 in /  1016.1 hPa West 0.5 mph /  0.8 km/h 2.0 mph /  3.2 km/h 70 % 0.00 in /  0 mm
23:22 66.9 °F /  19.4 °C 57.2 °F /  14 °C 30.01 in /  1016.1 hPa Calm     71 % 0.00 in /  0 mm
23:27 66.9 °F /  19.4 °C 57.6 °F /  14.2 °C 30.01 in /  1016.1 hPa West 1.1 mph /  1.8 km/h 3.5 mph /  5.6 km/h 72 % 0.00 in /  0 mm
23:32 66.9 °F /  19.4 °C 58.0 °F /  14.4 °C 30.01 in /  1016.1 hPa SW 1.4 mph /  2.3 km/h 5.8 mph /  9.3 km/h 73 % 0.00 in /  0 mm
23:37 66.9 °F /  19.4 °C 58.0 °F /  14.4 °C 30.01 in /  1016.1 hPa WSW 1.2 mph /  1.9 km/h 5.8 mph /  9.3 km/h 73 % 0.00 in /  0 mm
23:42 66.9 °F /  19.4 °C 58.0 °F /  14.4 °C 30.01 in /  1016.1 hPa WSW 0.9 mph /  1.4 km/h 2.3 mph /  3.7 km/h 73 % 0.00 in /  0 mm
23:47 67.0 °F /  19.4 °C 58.4 °F /  14.7 °C 30.01 in /  1016.1 hPa WSW 0.2 mph /  0.3 km/h 1.2 mph /  1.9 km/h 74 % 0.00 in /  0 mm
23:52 67.1 °F /  19.5 °C 58.5 °F /  14.7 °C 30.01 in /  1016.1 hPa WSW 0.2 mph /  0.3 km/h 1.2 mph /  1.9 km/h 74 % 0.00 in /  0 mm
23:57 67.1 °F /  19.5 °C 58.5 °F /  14.7 °C 30.01 in /  1016.1 hPa Calm     74 % 0.00 in /  0 mm
Crab Meadow Weather
Compliments of Weather Underground - 3 mb

Script developed by  Jim McMurry - jmcmurry@mwt.net Adapted for the template by  Wim van der Kuil - Leuven-Template.eu

Weather Terms: Severe Thunderstorm Watch - Conditions are favorable for the development of severe thunderstorms in and close to the watch area. These watches are issued for large areas by the Storm Prediction Center in Norman, Oklahoma, and are usually valid for four to six hours.